Bisbee, North Dakota
Current Conditions -  °F | °C
As of 3:35 AM on Wednesday 26 Nov 2014 (Local Time) from K9D7 Reporting Station
Overcast Overcast  
Wind Chill: -18°   Ceiling: 5000
Heat Index:   Visibility: 10mi
Dew Point: -4°   Wind: 12mph
Humidity: 85%   Direction: 20°NNE
Pressure: 30.28"   Gusts: NA
Location:  48.63°N, 99.38°W
Report Text: K9D7 260935Z AUTO 02010KT 10SM SCT036 OVC050 M18/M20 A3028 RMK AO2
Loading
Personal Weather Stations






























Interactive Weather Map New forecast layout! Learn more

10-Day Weather Forecast

Advertisements
Track Severe Weather on mobile